Time;durP1;ratioP1;P1;durP2;ratioP2;P2;SDS_P1;SDS_P2;PMS_P1;PMS_P2;Temp;Humidity;BMP_temperature;BMP_pressure;BME280_temperature;BME280_humidity;BME280_pressure;Samples;Min_cycle;Max_cycle;Signal;HPM_P1;HPM_P2
2023/12/06 00:02:21;;;;;;;179.80;84.10;;;;;;;-8.46;71.45;99030.61;108876;1251;110391;-68
2023/12/06 00:04:48;;;;;;;184.30;88.80;;;;;;;-8.43;71.46;99029.77;108872;1251;95610;-68
2023/12/06 00:07:16;;;;;;;205.80;95.60;;;;;;;-8.41;71.29;99033.05;108780;1251;107657;-68
2023/12/06 00:09:44;;;;;;;194.10;91.50;;;;;;;-8.42;71.38;99036.82;108921;1251;94537;-68
2023/12/06 00:12:12;;;;;;;195.00;91.00;;;;;;;-8.43;71.28;99038.20;106130;1250;96610;-68
2023/12/06 00:14:39;;;;;;;207.90;98.90;;;;;;;-8.46;71.05;99038.53;105950;1255;109954;-69
2023/12/06 00:17:07;;;;;;;207.50;97.20;;;;;;;-8.49;71.16;99039.40;105790;1254;97928;-68
2023/12/06 00:19:35;;;;;;;205.40;95.40;;;;;;;-8.50;71.19;99044.21;105619;1254;107213;-68
2023/12/06 00:22:03;;;;;;;199.10;93.90;;;;;;;-8.53;71.31;99042.65;105818;1254;96621;-69
2023/12/06 00:24:31;;;;;;;205.30;97.50;;;;;;;-8.58;71.13;99044.88;105817;1254;98021;-68
2023/12/06 00:27:00;;;;;;;198.90;92.40;;;;;;;-8.61;71.13;99045.22;105826;1251;110467;-68
2023/12/06 00:29:27;;;;;;;206.50;91.90;;;;;;;-8.60;71.41;99043.16;105918;1254;96877;-69
2023/12/06 00:31:55;;;;;;;205.20;95.50;;;;;;;-8.61;71.26;99044.18;105904;1254;107577;-69
2023/12/06 00:34:23;;;;;;;193.10;93.10;;;;;;;-8.63;71.27;99040.39;105474;1254;96609;-68
2023/12/06 00:36:51;;;;;;;180.60;85.90;;;;;;;-8.66;71.13;99036.26;105859;1254;96679;-68
2023/12/06 00:39:19;;;;;;;193.10;90.40;;;;;;;-8.72;71.20;99037.59;105777;1255;109804;-69
2023/12/06 00:41:47;;;;;;;192.30;90.00;;;;;;;-8.73;71.24;99037.23;105856;1253;97920;-69
2023/12/06 00:44:15;;;;;;;194.30;89.30;;;;;;;-8.72;71.47;99039.30;105619;1254;107652;-68
2023/12/06 00:46:42;;;;;;;178.90;90.10;;;;;;;-8.72;71.24;99036.73;105455;1251;96654;-68
2023/12/06 00:49:11;;;;;;;194.60;91.50;;;;;;;-8.73;71.37;99035.86;105679;1254;96607;-68
2023/12/06 00:51:39;;;;;;;190.20;89.70;;;;;;;-8.72;71.34;99036.90;105675;1254;109890;-70
2023/12/06 00:54:07;;;;;;;191.40;88.30;;;;;;;-8.71;71.45;99039.14;105502;1254;96648;-68
2023/12/06 00:56:35;;;;;;;186.20;88.20;;;;;;;-8.73;71.20;99037.59;105755;1253;107279;-68
2023/12/06 00:59:04;;;;;;;188.40;88.40;;;;;;;-8.72;71.50;99035.02;105753;1252;96644;-68
2023/12/06 01:01:32;;;;;;;190.40;85.40;;;;;;;-8.67;71.53;99034.86;105650;1254;96503;-68
2023/12/06 01:04:00;;;;;;;193.80;88.00;;;;;;;-8.67;71.40;99032.80;105648;1254;110052;-69
2023/12/06 01:06:28;;;;;;;175.40;82.90;;;;;;;-8.72;71.35;99035.19;105816;1254;96568;-68
2023/12/06 01:08:56;;;;;;;180.00;85.90;;;;;;;-8.71;71.31;99034.85;105572;1254;107140;-69
2023/12/06 01:11:24;;;;;;;181.70;89.90;;;;;;;-8.73;71.18;99031.05;105508;1257;97533;-68
2023/12/06 01:13:52;;;;;;;185.90;87.60;;;;;;;-8.76;71.32;99025.88;105848;1253;96619;-68
2023/12/06 01:16:20;;;;;;;191.50;87.00;;;;;;;-8.78;71.31;99020.56;105545;1255;109139;-67
2023/12/06 01:18:49;;;;;;;185.40;85.00;;;;;;;-8.79;71.29;99020.20;105811;1254;97931;-68
2023/12/06 01:21:17;;;;;;;189.40;88.50;;;;;;;-8.78;71.45;99021.93;105651;1258;107591;-66
2023/12/06 01:23:44;;;;;;;189.70;87.70;;;;;;;-8.82;71.29;99017.61;105510;1254;96685;-68
2023/12/06 01:26:12;;;;;;;181.00;81.40;;;;;;;-8.89;71.05;99021.02;105600;1254;97575;-66
2023/12/06 01:28:41;;;;;;;186.20;81.90;;;;;;;-8.93;71.21;99020.30;105770;1256;110554;-68
2023/12/06 01:31:09;;;;;;;176.70;82.80;;;;;;;-8.93;71.43;99020.47;105668;1253;97926;-68
2023/12/06 01:33:37;;;;;;;185.50;88.80;;;;;;;-8.87;71.48;99017.77;105626;1258;105596;-69
2023/12/06 01:36:05;;;;;;;159.30;76.70;;;;;;;-8.84;71.65;99014.85;105854;1254;96646;-69
2023/12/06 01:38:33;;;;;;;189.80;85.40;;;;;;;-8.77;71.71;99013.69;105544;1254;96688;-68
2023/12/06 01:41:02;;;;;;;183.00;83.30;;;;;;;-8.76;71.50;99008.86;105725;1254;109883;-69
2023/12/06 01:43:29;;;;;;;190.10;85.80;;;;;;;-8.76;71.66;99007.33;105636;1254;96619;-68
2023/12/06 01:45:58;;;;;;;186.90;82.50;;;;;;;-8.74;71.75;99009.89;105640;1251;107708;-68
2023/12/06 01:48:26;;;;;;;180.50;83.70;;;;;;;-8.71;71.74;99008.55;105629;1254;96694;-69
2023/12/06 01:50:56;;;;;;;180.00;84.40;;;;;;;-8.65;71.80;99007.55;105932;1251;97482;-69
2023/12/06 01:53:23;;;;;;;179.60;84.10;;;;;;;-8.59;71.78;99001.55;105419;1263;109834;-69
2023/12/06 01:55:51;;;;;;;178.70;85.70;;;;;;;-8.55;71.90;98997.25;105557;1251;96567;-68
2023/12/06 01:58:21;;;;;;;193.50;87.50;;;;;;;-8.54;71.77;98994.33;105670;1251;107268;-68
2023/12/06 02:00:51;;;;;;;182.50;88.40;;;;;;;-8.58;71.64;98998.46;105645;1250;96609;-69
2023/12/06 02:03:19;;;;;;;187.00;82.40;;;;;;;-8.59;71.57;98998.96;105856;1251;96694;-69
2023/12/06 02:05:47;;;;;;;184.40;84.20;;;;;;;-8.61;71.49;99003.77;105940;1254;110115;-67
2023/12/06 02:08:16;;;;;;;174.00;81.50;;;;;;;-8.61;71.58;98999.48;105693;1254;96606;-70
2023/12/06 02:10:44;;;;;;;169.80;78.30;;;;;;;-8.58;71.61;99000.01;105952;1253;107649;-69
2023/12/06 02:13:12;;;;;;;174.60;84.70;;;;;;;-8.51;71.82;99004.30;105747;1257;96615;-68
2023/12/06 02:15:40;;;;;;;171.60;80.10;;;;;;;-8.47;71.69;99004.13;105620;1254;96682;-68
2023/12/06 02:18:08;;;;;;;169.30;75.90;;;;;;;-8.47;71.63;99000.02;105448;1264;109825;-69
2023/12/06 02:20:37;;;;;;;184.50;80.60;;;;;;;-8.50;71.56;98995.89;105837;1254;97824;-69
2023/12/06 02:23:07;;;;;;;179.10;79.50;;;;;;;-8.54;71.58;98994.50;105686;1263;107615;-68
2023/12/06 02:25:35;;;;;;;187.30;84.70;;;;;;;-8.56;71.68;98993.98;105780;1254;97913;-69
2023/12/06 02:28:03;;;;;;;174.80;78.20;;;;;;;-8.65;71.36;98991.89;105604;1254;97922;-69
2023/12/06 02:30:31;;;;;;;179.00;79.90;;;;;;;-8.66;71.66;98989.14;106231;1253;109841;-68
2023/12/06 02:32:59;;;;;;;178.90;83.20;;;;;;;-8.67;71.36;98992.75;105402;1256;97965;-68
2023/12/06 02:35:35;;;;;;;181.00;82.90;;;;;;;-8.71;71.41;98992.04;105715;1252;105772;-69
2023/12/06 02:38:03;;;;;;;172.10;81.00;;;;;;;-8.69;71.69;98991.18;105359;1251;96781;-69
2023/12/06 02:40:32;;;;;;;187.30;84.40;;;;;;;-8.67;71.62;98994.64;105518;1252;97646;-66
2023/12/06 02:43:00;;;;;;;166.10;78.70;;;;;;;-8.66;71.64;98994.46;105694;1254;109844;-70
2023/12/06 02:45:28;;;;;;;187.20;84.20;;;;;;;-8.63;71.62;98994.83;105755;1251;96516;-68
2023/12/06 02:47:56;;;;;;;165.50;76.50;;;;;;;-8.58;71.89;98994.52;105775;1254;107768;-67
2023/12/06 02:50:24;;;;;;;177.20;78.80;;;;;;;-8.55;71.83;98997.42;105697;1257;96689;-69
2023/12/06 02:52:51;;;;;;;168.70;77.10;;;;;;;-8.55;71.83;99000.70;105527;1252;96538;-69
2023/12/06 02:55:19;;;;;;;168.40;77.00;;;;;;;-8.54;71.82;99004.98;105543;1255;109886;-67
2023/12/06 02:57:47;;;;;;;185.10;83.20;;;;;;;-8.52;71.87;99005.86;105854;1253;96592;-68
2023/12/06 03:00:15;;;;;;;174.60;79.40;;;;;;;-8.51;71.87;99005.34;105533;1252;107349;-68
2023/12/06 03:02:43;;;;;;;172.50;79.80;;;;;;;-8.53;71.70;99007.23;105682;1254;97790;-68
2023/12/06 03:05:11;;;;;;;164.10;76.90;;;;;;;-8.52;71.77;99007.76;105421;1256;96650;-68
2023/12/06 03:07:39;;;;;;;168.20;75.80;;;;;;;-8.53;71.90;99004.65;105500;1264;109910;-68
2023/12/06 03:10:07;;;;;;;163.30;75.60;;;;;;;-8.55;71.69;99002.77;105673;1254;96596;-67
2023/12/06 03:12:35;;;;;;;161.10;73.20;;;;;;;-8.55;71.88;99007.05;105750;1254;107816;-67
2023/12/06 03:15:03;;;;;;;162.60;74.30;;;;;;;-8.53;71.95;99006.55;105715;1254;96629;-68
2023/12/06 03:17:31;;;;;;;162.90;74.20;;;;;;;-8.49;71.87;99006.56;105671;1251;97554;-68
2023/12/06 03:19:59;;;;;;;173.60;79.40;;;;;;;-8.49;71.82;98997.45;105602;1257;109400;-68
2023/12/06 03:22:27;;;;;;;160.50;74.10;;;;;;;-8.50;71.76;98999.69;105764;1255;96657;-69
2023/12/06 03:24:55;;;;;;;147.30;73.20;;;;;;;-8.52;71.86;98994.34;108808;1251;105885;-68
2023/12/06 03:27:22;;;;;;;160.00;74.30;;;;;;;-8.53;71.88;98990.55;105923;1251;97987;-69
2023/12/06 03:29:51;;;;;;;164.60;77.20;;;;;;;-8.53;71.72;98991.75;105854;1253;96826;-68
2023/12/06 03:32:18;;;;;;;154.80;73.80;;;;;;;-8.54;71.72;98996.74;105536;1253;110336;-67
2023/12/06 03:34:46;;;;;;;157.80;71.90;;;;;;;-8.52;71.81;98999.33;105289;1263;96574;-68
2023/12/06 03:37:14;;;;;;;157.60;76.80;;;;;;;-8.47;71.95;99003.96;105425;1254;107153;-68
2023/12/06 03:39:42;;;;;;;161.40;75.10;;;;;;;-8.50;71.76;99006.20;105750;1251;97804;-69
2023/12/06 03:42:10;;;;;;;150.20;68.70;;;;;;;-8.56;71.72;99008.60;105632;1256;97495;-69
2023/12/06 03:44:38;;;;;;;158.20;68.20;;;;;;;-8.58;71.62;99008.95;105511;1253;110241;-68
2023/12/06 03:47:05;;;;;;;155.40;73.50;;;;;;;-8.59;71.75;98999.98;105698;1254;96523;-69
2023/12/06 03:49:34;;;;;;;158.50;73.20;;;;;;;-8.61;71.71;98996.73;105514;1265;107602;-68
2023/12/06 03:52:02;;;;;;;158.40;75.90;;;;;;;-8.64;71.74;98994.65;105548;1254;96705;-69
2023/12/06 03:54:31;;;;;;;146.60;71.80;;;;;;;-8.65;71.75;98997.06;105536;1255;96625;-67
2023/12/06 03:56:59;;;;;;;156.70;73.40;;;;;;;-8.63;71.97;98998.77;105456;1251;109826;-68
2023/12/06 03:59:28;;;;;;;157.50;73.50;;;;;;;-8.63;71.76;98997.57;105516;1254;96628;-67
2023/12/06 04:01:55;;;;;;;140.70;70.50;;;;;;;-8.67;71.70;99000.65;105709;1252;106328;-69
2023/12/06 04:04:24;;;;;;;141.40;68.60;;;;;;;-8.72;71.61;98999.42;105569;1257;96628;-69
2023/12/06 04:06:52;;;;;;;144.50;70.40;;;;;;;-8.71;71.72;99003.05;105854;1256;96534;-69
2023/12/06 04:09:20;;;;;;;146.20;69.80;;;;;;;-8.70;71.75;99002.71;105384;1254;108686;-69
2023/12/06 04:11:48;;;;;;;163.20;71.90;;;;;;;-8.71;71.75;99003.39;105602;1253;96664;-68
2023/12/06 04:14:16;;;;;;;135.10;67.20;;;;;;;-8.69;71.84;99008.38;105590;1254;107602;-69
2023/12/06 04:16:43;;;;;;;156.30;68.60;;;;;;;-8.65;71.94;99007.53;105730;1254;96993;-67
2023/12/06 04:19:11;;;;;;;156.30;68.20;;;;;;;-8.66;71.84;99007.71;105757;1253;96587;-68
2023/12/06 04:21:39;;;;;;;147.60;72.20;;;;;;;-8.70;71.82;99006.66;105504;1267;108278;-67
2023/12/06 04:24:07;;;;;;;152.50;69.40;;;;;;;-8.71;71.68;99010.09;105850;1253;96609;-68
2023/12/06 04:26:35;;;;;;;150.00;71.80;;;;;;;-8.74;71.58;99011.11;105655;1257;107719;-68
2023/12/06 04:29:03;;;;;;;148.90;69.10;;;;;;;-8.77;71.61;99016.77;105972;1251;97225;-67
2023/12/06 04:31:31;;;;;;;147.60;66.90;;;;;;;-8.76;71.80;99017.98;105746;1251;97153;-69
2023/12/06 04:33:59;;;;;;;138.50;66.40;;;;;;;-8.77;71.82;99014.02;106004;1252;110119;-68
2023/12/06 04:36:27;;;;;;;127.90;59.40;;;;;;;-8.75;71.83;99017.30;105960;1262;96620;-68
2023/12/06 04:38:55;;;;;;;140.60;65.00;;;;;;;-8.71;71.95;99017.14;105543;1257;108346;-68
2023/12/06 04:41:22;;;;;;;153.30;71.40;;;;;;;-8.71;71.75;99018.00;105570;1256;97343;-68
2023/12/06 04:43:50;;;;;;;142.50;66.90;;;;;;;-8.73;71.71;99021.42;105545;1254;96704;-68
2023/12/06 04:46:18;;;;;;;146.50;64.60;;;;;;;-8.78;71.59;99023.48;105341;1256;109490;-69
2023/12/06 04:48:46;;;;;;;143.80;69.00;;;;;;;-8.78;71.59;99022.45;105586;1257;96597;-69
2023/12/06 04:51:15;;;;;;;140.80;68.00;;;;;;;-8.84;71.57;99017.77;105501;1253;107654;-68
2023/12/06 04:53:43;;;;;;;139.60;66.60;;;;;;;-8.85;71.70;99020.52;105592;1251;96716;-68
2023/12/06 04:56:12;;;;;;;122.60;62.80;;;;;;;-8.87;71.61;99019.48;105648;1254;96612;-68
2023/12/06 04:58:39;;;;;;;128.80;58.40;;;;;;;-8.86;71.87;99016.05;105553;1253;110457;-68
2023/12/06 05:01:08;;;;;;;142.60;65.20;;;;;;;-8.80;71.96;99022.10;105837;1255;97948;-68
2023/12/06 05:03:36;;;;;;;126.10;57.30;;;;;;;-8.75;72.00;99023.82;105671;1253;108208;-67
2023/12/06 05:06:04;;;;;;;140.90;64.70;;;;;;;-8.74;71.86;99021.42;105448;1257;96602;-69
2023/12/06 05:08:32;;;;;;;149.20;62.90;;;;;;;-8.78;71.56;99025.71;105759;1254;97915;-68
2023/12/06 05:11:00;;;;;;;139.40;63.70;;;;;;;-8.79;71.82;99022.27;105746;1251;109890;-68
2023/12/06 05:13:27;;;;;;;131.20;60.00;;;;;;;-8.75;72.05;99024.34;105771;1255;97793;-67
2023/12/06 05:15:55;;;;;;;137.50;65.90;;;;;;;-8.69;72.19;99023.34;105871;1254;107611;-70
2023/12/06 05:18:23;;;;;;;150.30;63.20;;;;;;;-8.64;72.04;99030.06;105650;1254;97530;-70
2023/12/06 05:20:51;;;;;;;126.50;58.40;;;;;;;-8.58;72.14;99033.70;105697;1254;96600;-69
2023/12/06 05:23:19;;;;;;;140.60;63.60;;;;;;;-8.52;72.35;99037.84;105688;1254;108898;-72
2023/12/06 05:25:47;;;;;;;153.50;67.90;;;;;;;-8.46;72.14;99034.05;105607;1257;96566;-69
2023/12/06 05:28:15;;;;;;;140.30;66.40;;;;;;;-8.46;72.14;99028.21;105617;1254;107606;-70
2023/12/06 05:30:43;;;;;;;132.50;61.00;;;;;;;-8.48;72.12;99028.91;106363;1254;97060;-68
2023/12/06 05:33:10;;;;;;;130.50;60.40;;;;;;;-8.49;72.17;99026.52;106225;1257;96676;-68
2023/12/06 05:35:38;;;;;;;152.10;65.80;;;;;;;-8.47;72.24;99022.37;105833;1257;108338;-69
2023/12/06 05:38:06;;;;;;;144.00;66.60;;;;;;;-8.45;72.13;99018.23;105705;1255;96613;-69
2023/12/06 05:40:34;;;;;;;136.70;61.00;;;;;;;-8.44;72.26;99025.80;105550;1265;107200;-69
2023/12/06 05:43:02;;;;;;;133.90;63.30;;;;;;;-8.43;72.14;99028.58;105608;1254;97942;-69
2023/12/06 05:45:31;;;;;;;134.90;61.90;;;;;;;-8.44;72.00;99032.70;105596;1256;98021;-67
2023/12/06 05:47:58;;;;;;;130.60;58.30;;;;;;;-8.43;72.21;99034.77;105832;1253;109478;-69
2023/12/06 05:50:27;;;;;;;134.90;61.90;;;;;;;-8.42;72.00;99040.44;105856;1251;97405;-71
2023/12/06 05:52:55;;;;;;;136.80;64.80;;;;;;;-8.41;72.06;99037.34;105807;1265;107583;-68
2023/12/06 05:55:23;;;;;;;131.20;61.30;;;;;;;-8.38;72.24;99031.51;105919;1254;96603;-70
2023/12/06 05:57:51;;;;;;;128.90;59.80;;;;;;;-8.34;72.30;99031.35;105688;1253;96583;-67
2023/12/06 06:00:19;;;;;;;129.20;60.80;;;;;;;-8.31;72.40;99032.73;105461;1258;110686;-71
2023/12/06 06:02:47;;;;;;;130.10;61.80;;;;;;;-8.28;72.28;99031.89;105417;1265;96517;-67
2023/12/06 06:05:16;;;;;;;124.80;56.70;;;;;;;-8.24;72.34;99037.92;105541;1257;106667;-74
2023/12/06 06:07:44;;;;;;;129.50;60.90;;;;;;;-8.19;72.58;99037.77;106908;1251;96577;-71
2023/12/06 06:10:12;;;;;;;130.90;60.90;;;;;;;-8.13;72.42;99041.20;105833;1254;96658;-71
2023/12/06 06:12:40;;;;;;;126.20;59.20;;;;;;;-8.11;72.33;99037.77;105805;1254;109960;-72
2023/12/06 06:15:08;;;;;;;124.40;59.60;;;;;;;-8.10;72.10;99038.46;105924;1263;96606;-71
2023/12/06 06:17:36;;;;;;;134.80;61.90;;;;;;;-8.08;72.23;99040.36;105997;1253;107674;-73
2023/12/06 06:20:05;;;;;;;131.30;57.00;;;;;;;-8.07;72.23;99042.25;105816;1257;96787;-71
2023/12/06 06:22:33;;;;;;;127.50;58.00;;;;;;;-8.03;72.25;99047.95;108855;1251;94341;-72
2023/12/06 06:25:01;;;;;;;129.90;58.00;;;;;;;-8.05;72.10;99044.84;106633;1253;110014;-72
2023/12/06 06:27:29;;;;;;;130.90;63.90;;;;;;;-8.06;72.10;99047.59;105773;1257;96620;-71
2023/12/06 06:29:58;;;;;;;128.80;62.30;;;;;;;-8.03;72.15;99049.50;106006;1253;106702;-71
2023/12/06 06:32:26;;;;;;;136.40;66.10;;;;;;;-8.02;72.19;99046.91;105834;1254;96596;-72
2023/12/06 06:34:54;;;;;;;131.00;62.90;;;;;;;-7.98;72.33;99049.52;105849;1257;96609;-74
2023/12/06 06:37:22;;;;;;;130.90;63.60;;;;;;;-7.94;72.45;99042.96;105727;1263;109869;-72
2023/12/06 06:39:50;;;;;;;137.00;60.70;;;;;;;-7.87;72.49;99045.56;105529;1255;96538;-71
2023/12/06 06:42:18;;;;;;;141.80;64.00;;;;;;;-7.83;72.50;99044.70;105759;1254;107287;-71
2023/12/06 06:44:47;;;;;;;126.70;64.00;;;;;;;-7.78;72.56;99045.92;105434;1251;96724;-71
2023/12/06 06:47:23;;;;;;;123.00;58.50;;;;;;;-7.72;72.40;99045.58;105365;1257;97530;-70
2023/12/06 06:49:53;;;;;;;126.30;59.80;;;;;;;-7.69;72.53;99045.92;105920;1253;108872;-72
2023/12/06 06:52:22;;;;;;;121.70;57.80;;;;;;;-7.66;72.61;99047.48;108838;1251;95483;-71
2023/12/06 06:54:49;;;;;;;133.50;61.90;;;;;;;-7.61;72.58;99051.27;107057;1251;107610;-72
2023/12/06 06:57:17;;;;;;;124.10;59.50;;;;;;;-7.58;72.50;99051.80;105555;1255;97931;-72
2023/12/06 06:59:45;;;;;;;123.50;59.50;;;;;;;-7.58;72.40;99052.48;105904;1256;96602;-72
2023/12/06 07:02:13;;;;;;;126.60;59.40;;;;;;;-7.58;72.28;99053.52;106712;1251;110284;-72
2023/12/06 07:04:46;;;;;;;124.00;56.30;;;;;;;-7.56;72.54;99053.00;105938;1254;96519;-73
2023/12/06 07:07:13;;;;;;;131.50;63.20;;;;;;;-7.48;72.70;99053.85;105655;1251;107667;-72
2023/12/06 07:09:42;;;;;;;120.50;56.00;;;;;;;-7.45;72.55;99056.79;105567;1257;96611;-74
2023/12/06 07:12:10;;;;;;;125.90;58.20;;;;;;;-7.42;72.82;99053.34;105876;1254;97570;-72
2023/12/06 07:14:38;;;;;;;121.20;54.90;;;;;;;-7.35;72.76;99051.63;105530;1257;110511;-72
2023/12/06 07:17:06;;;;;;;126.30;60.90;;;;;;;-7.25;72.93;99057.13;105716;1254;96653;-73
2023/12/06 07:19:33;;;;;;;113.60;51.60;;;;;;;-7.18;72.73;99057.12;105516;1256;107706;-73
2023/12/06 07:22:02;;;;;;;118.90;55.90;;;;;;;-7.13;72.93;99059.52;105757;1263;96602;-74
2023/12/06 07:24:32;;;;;;;127.90;60.40;;;;;;;-7.04;72.99;99058.14;105960;1254;96584;-73
2023/12/06 07:27:00;;;;;;;123.30;57.10;;;;;;;-6.98;73.00;99055.72;105813;1262;111410;-71
2023/12/06 07:29:28;;;;;;;126.10;61.40;;;;;;;-6.91;73.04;99059.65;106139;1263;97521;-72
2023/12/06 07:31:56;;;;;;;115.20;55.30;;;;;;;-6.86;72.89;99062.41;105609;1251;105437;-72
2023/12/06 07:34:25;;;;;;;123.70;58.30;;;;;;;-6.80;73.10;99060.67;107671;1252;96593;-72
2023/12/06 07:37:05;;;;;;;113.90;54.20;;;;;;;-6.71;73.05;99061.52;105975;1254;97524;-73
2023/12/06 07:39:33;;;;;;;125.20;57.50;;;;;;;-6.61;73.18;99061.30;105616;1266;109487;-74
2023/12/06 07:42:01;;;;;;;124.90;59.20;;;;;;;-6.54;73.12;99064.39;105651;1254;97207;-72
2023/12/06 07:44:29;;;;;;;123.70;60.10;;;;;;;-6.45;73.08;99056.94;105880;1263;107435;-74
2023/12/06 07:46:57;;;;;;;120.30;60.00;;;;;;;-6.42;72.95;99048.98;105589;1263;96659;-72
2023/12/06 07:49:24;;;;;;;132.90;62.50;;;;;;;-6.34;73.21;99045.52;105556;1251;97377;-73
2023/12/06 07:51:52;;;;;;;128.40;62.70;;;;;;;-6.31;72.89;99044.45;105259;1258;109768;-73
2023/12/06 07:54:20;;;;;;;128.40;62.00;;;;;;;-6.25;73.13;99040.80;105453;1255;96966;-73
2023/12/06 07:56:48;;;;;;;133.90;67.50;;;;;;;-6.22;73.06;99040.10;105429;1264;107721;-73
2023/12/06 07:59:16;;;;;;;127.90;65.30;;;;;;;-6.23;72.96;99036.30;105307;1256;96641;-73
2023/12/06 08:01:44;;;;;;;126.40;61.10;;;;;;;-6.23;73.21;99034.75;106016;1251;97752;-74
2023/12/06 08:04:13;;;;;;;130.90;64.60;;;;;;;-6.22;73.11;99035.95;105500;1253;108954;-71
2023/12/06 08:06:41;;;;;;;135.40;66.00;;;;;;;-6.18;73.28;99033.69;105628;1265;96512;-72
2023/12/06 08:09:12;;;;;;;132.00;64.10;;;;;;;-6.16;73.25;99032.48;105777;1251;107677;-74
2023/12/06 08:11:41;;;;;;;128.70;61.50;;;;;;;-6.09;73.54;99036.75;105539;1263;96692;-74
2023/12/06 08:14:09;;;;;;;134.80;65.00;;;;;;;-6.07;73.45;99041.39;105649;1254;97907;-73
2023/12/06 08:16:37;;;;;;;127.70;63.50;;;;;;;-6.01;73.45;99038.25;105508;1270;110528;-74
2023/12/06 08:19:05;;;;;;;131.20;64.90;;;;;;;-5.93;73.46;99039.91;105800;1254;96603;-74
2023/12/06 08:21:32;;;;;;;134.20;65.90;;;;;;;-5.87;73.31;99038.64;105638;1254;107574;-74
2023/12/06 08:24:02;;;;;;;129.60;64.00;;;;;;;-5.85;73.50;99042.77;105634;1256;96683;-73
2023/12/06 08:26:30;;;;;;;122.70;60.00;;;;;;;-5.85;73.42;99047.10;105669;1253;96683;-73
2023/12/06 08:28:58;;;;;;;133.20;66.70;;;;;;;-5.83;73.31;99044.49;105674;1255;109687;-74
2023/12/06 08:31:28;;;;;;;131.70;63.40;;;;;;;-5.82;73.48;99041.89;105780;1254;96606;-74
2023/12/06 08:33:57;;;;;;;123.50;64.50;;;;;;;-5.81;73.31;99041.04;105481;1257;107284;-73
2023/12/06 08:36:25;;;;;;;127.70;64.40;;;;;;;-5.80;73.38;99038.61;105607;1254;97557;-73
2023/12/06 08:38:53;;;;;;;120.80;60.70;;;;;;;-5.79;73.49;99043.09;105667;1257;96680;-74
2023/12/06 08:41:22;;;;;;;137.10;70.20;;;;;;;-5.79;73.55;99038.09;105827;1253;109988;-74
2023/12/06 08:43:50;;;;;;;123.90;61.10;;;;;;;-5.78;73.44;99036.01;105796;1254;97820;-75
2023/12/06 08:46:20;;;;;;;119.60;60.50;;;;;;;-5.76;73.69;99035.65;105447;1254;107566;-72
2023/12/06 08:48:48;;;;;;;119.10;58.70;;;;;;;-5.74;73.67;99035.98;105563;1254;96594;-72
2023/12/06 08:51:16;;;;;;;130.50;64.60;;;;;;;-5.71;73.60;99041.64;105608;1262;96673;-73
2023/12/06 08:53:44;;;;;;;127.60;62.90;;;;;;;-5.65;73.52;99046.97;105641;1255;109603;-72
2023/12/06 08:56:13;;;;;;;128.40;64.30;;;;;;;-5.59;73.84;99050.55;105616;1253;96542;-74
2023/12/06 08:58:41;;;;;;;132.90;63.60;;;;;;;-5.58;73.69;99055.91;105607;1262;107559;-72
2023/12/06 09:01:09;;;;;;;124.60;62.30;;;;;;;-5.57;73.66;99066.43;105555;1255;96594;-73
2023/12/06 09:03:37;;;;;;;128.90;62.40;;;;;;;-5.51;73.70;99060.17;105559;1253;97269;-74
2023/12/06 09:06:05;;;;;;;131.40;64.90;;;;;;;-5.48;73.71;99061.35;105607;1253;109923;-73
2023/12/06 09:08:33;;;;;;;122.90;64.10;;;;;;;-5.46;73.61;99059.95;105772;1254;96502;-73
2023/12/06 09:11:01;;;;;;;133.70;66.40;;;;;;;-5.46;73.67;99065.49;105658;1255;107280;-73
2023/12/06 09:13:28;;;;;;;122.20;63.90;;;;;;;-5.45;73.30;99069.63;105547;1255;97916;-73
2023/12/06 09:15:56;;;;;;;127.50;64.70;;;;;;;-5.44;73.77;99069.45;105427;1262;97088;-73
2023/12/06 09:18:24;;;;;;;130.80;62.50;;;;;;;-5.40;73.69;99070.80;105651;1253;111047;-73
2023/12/06 09:20:53;;;;;;;131.20;68.60;;;;;;;-5.39;73.55;99073.04;105583;1251;96591;-74
2023/12/06 09:23:21;;;;;;;121.10;60.30;;;;;;;-5.36;73.75;99069.91;105648;1265;107719;-74
2023/12/06 09:25:49;;;;;;;129.00;64.00;;;;;;;-5.33;73.72;99062.63;105629;1254;96682;-73
2023/12/06 09:28:17;;;;;;;128.70;62.90;;;;;;;-5.34;73.62;99060.21;105655;1257;96519;-74
2023/12/06 09:30:45;;;;;;;125.30;65.30;;;;;;;-5.33;73.66;99061.23;105961;1254;109551;-73
2023/12/06 09:33:13;;;;;;;133.80;67.90;;;;;;;-5.28;73.74;99056.70;105620;1265;96594;-73
2023/12/06 09:35:41;;;;;;;131.90;66.10;;;;;;;-5.26;73.77;99058.58;105576;1254;107628;-72
2023/12/06 09:38:09;;;;;;;132.20;66.40;;;;;;;-5.24;73.70;99063.42;105662;1254;96596;-74
2023/12/06 09:40:37;;;;;;;134.50;68.10;;;;;;;-5.24;73.59;99069.80;105803;1254;96615;-73
2023/12/06 09:43:05;;;;;;;131.30;63.70;;;;;;;-5.21;73.66;99071.17;105771;1253;109924;-72
2023/12/06 09:45:34;;;;;;;135.00;69.00;;;;;;;-5.18;74.00;99069.06;105407;1254;97621;-72
2023/12/06 09:48:03;;;;;;;130.50;65.60;;;;;;;-5.19;73.72;99063.36;105436;1260;107641;-74
2023/12/06 09:50:32;;;;;;;136.00;68.30;;;;;;;-5.18;74.06;99053.85;105829;1263;97935;-73
2023/12/06 09:53:00;;;;;;;126.60;64.40;;;;;;;-5.19;73.59;99046.76;105409;1256;97424;-74
2023/12/06 09:55:35;;;;;;;128.40;62.40;;;;;;;-5.15;73.66;99042.94;105557;1251;110470;-73
2023/12/06 09:58:03;;;;;;;129.20;63.80;;;;;;;-5.15;73.72;99039.98;105758;1254;97942;-74
2023/12/06 10:00:31;;;;;;;126.30;64.10;;;;;;;-5.11;74.05;99040.30;105640;1254;107699;-73
2023/12/06 10:02:59;;;;;;;131.90;65.60;;;;;;;-5.04;73.83;99039.71;105542;1251;96647;-73
2023/12/06 10:05:27;;;;;;;114.60;60.60;;;;;;;-5.01;73.99;99040.02;105663;1265;97402;-73
2023/12/06 10:07:55;;;;;;;129.10;66.70;;;;;;;-4.97;74.05;99043.10;105660;1251;109998;-73
2023/12/06 10:10:23;;;;;;;123.80;64.40;;;;;;;-4.94;73.94;99044.64;105423;1265;96564;-72
2023/12/06 10:12:55;;;;;;;129.80;64.10;;;;;;;-4.88;74.12;99041.27;105594;1254;107657;-73
2023/12/06 10:15:35;;;;;;;135.40;64.60;;;;;;;-4.80;74.13;99046.21;105446;1254;96672;-73
2023/12/06 10:18:03;;;;;;;122.10;63.30;;;;;;;-4.71;74.14;99044.04;105362;1257;97450;-73
2023/12/06 10:20:31;;;;;;;129.40;65.60;;;;;;;-4.65;74.06;99039.30;105547;1264;109224;-74
2023/12/06 10:23:00;;;;;;;121.90;60.20;;;;;;;-4.59;74.13;99042.17;105815;1254;97788;-74
2023/12/06 10:25:38;;;;;;;126.70;64.40;;;;;;;-4.55;73.94;99049.56;106238;1253;107163;-74
2023/12/06 10:28:07;;;;;;;133.10;67.80;;;;;;;-4.50;74.25;99040.70;105583;1257;96701;-72
2023/12/06 10:30:35;;;;;;;135.10;66.30;;;;;;;-4.49;74.33;99033.23;105631;1260;96587;-74
2023/12/06 10:33:05;;;;;;;122.00;64.10;;;;;;;-4.48;74.03;99038.58;105741;1253;109859;-72
2023/12/06 10:35:37;;;;;;;129.70;66.00;;;;;;;-4.45;74.12;99037.87;105714;1254;97425;-74
2023/12/06 10:38:08;;;;;;;126.00;63.70;;;;;;;-4.44;74.25;99037.67;105425;1251;107220;-73
2023/12/06 10:40:36;;;;;;;127.00;63.00;;;;;;;-4.42;74.13;99031.94;105550;1251;96657;-74
2023/12/06 10:43:07;;;;;;;121.50;63.90;;;;;;;-4.41;74.05;99029.50;105636;1251;97543;-74
2023/12/06 10:45:36;;;;;;;124.80;65.60;;;;;;;-4.40;74.32;99026.89;105575;1254;109505;-73
2023/12/06 10:48:05;;;;;;;124.60;64.20;;;;;;;-4.41;74.13;99026.55;105714;1254;96590;-73
2023/12/06 10:50:34;;;;;;;127.10;64.70;;;;;;;-4.40;74.21;99029.84;105753;1253;107617;-74
2023/12/06 10:53:03;;;;;;;118.20;61.20;;;;;;;-4.41;74.03;99026.89;105812;1251;97579;-74
2023/12/06 10:55:32;;;;;;;118.10;65.30;;;;;;;-4.39;74.19;99026.37;105631;1254;97820;-74
2023/12/06 10:58:00;;;;;;;124.50;62.00;;;;;;;-4.38;74.14;99024.44;105664;1251;111396;-75
2023/12/06 11:03:33;;;;;;;128.90;66.30;;;;;;;-4.36;74.04;99020.61;102145;1292;635252;-74
2023/12/06 11:06:11;;;;;;;125.30;63.10;;;;;;;-4.39;74.08;99019.44;104563;1270;94240;-75
2023/12/06 11:08:57;;;;;;;124.90;63.80;;;;;;;-4.40;74.13;99013.05;104840;1263;95155;-74